Orbital elements of FENGYUN 1C DEB
| Launched | 9 May 1999 |
| Flight ended | – |
| Launch site | Taiyuan Space Center, PRC |
| Owner | People's Republic of China |
| NORAD ID | 32324 |
| Date fetched |
Epoch osculation |
Inc. [°] |
Ecc. | RA asc node [hr] |
Arg Peri. [°] |
Mean anom [°] |
Mean motion [rev/day] |
Abs. mag |
| Date fetched |
Epoch osculation |
Inc. [°] |
Ecc. | RA asc node [hr] |
Arg Peri. [°] |
Mean anom [°] |
Mean motion [rev/day] |
Abs. mag |
| 2026 May 05 17:57 | 2026 May 05 06:41:20 | 99.5377 | 0.00492 | 16.0218 | 348.4399 | 11.5635 | 14.09430 | – |
| 2026 May 04 17:57 | 2026 Apr 28 00:54:26 | 99.5364 | 0.00496 | 15.5108 | 8.6910 | 11.5635 | 14.09430 | – |
| 2026 May 03 17:57 | 2026 Apr 28 00:54:26 | 99.5364 | 0.00496 | 15.5108 | 8.6910 | 11.5635 | 14.09430 | – |
| 2026 May 02 17:57 | 2026 Apr 28 00:54:26 | 99.5364 | 0.00496 | 15.5108 | 8.6910 | 11.5635 | 14.09430 | – |
| 2026 May 01 17:56 | 2026 Apr 28 00:54:26 | 99.5364 | 0.00496 | 15.5108 | 8.6910 | 11.5635 | 14.09430 | – |
| 2026 Apr 30 17:56 | 2026 Apr 28 00:54:26 | 99.5364 | 0.00496 | 15.5108 | 8.6910 | 11.5635 | 14.09430 | – |
| 2026 Apr 29 17:57 | 2026 Apr 23 13:34:16 | 99.5356 | 0.00498 | 15.1952 | 21.0787 | 11.5635 | 14.09430 | – |
| 2026 Apr 28 17:56 | 2026 Apr 23 13:34:16 | 99.5356 | 0.00498 | 15.1952 | 21.0787 | 11.5635 | 14.09430 | – |
| 2026 Apr 27 17:58 | 2026 Apr 23 13:34:16 | 99.5356 | 0.00498 | 15.1952 | 21.0787 | 11.5635 | 14.09430 | – |
| 2026 Apr 26 17:58 | 2026 Apr 23 13:34:16 | 99.5356 | 0.00498 | 15.1952 | 21.0787 | 11.5635 | 14.09430 | – |
| 2026 Apr 25 17:58 | 2026 Apr 23 13:34:16 | 99.5356 | 0.00498 | 15.1952 | 21.0787 | 11.5635 | 14.09430 | – |
| 2026 Apr 24 17:59 | 2026 Apr 23 13:34:16 | 99.5356 | 0.00498 | 15.1952 | 21.0787 | 11.5635 | 14.09430 | – |
| 2026 Apr 23 17:57 | 2026 Apr 16 18:00:36 | 99.5346 | 0.00502 | 14.7144 | 39.9631 | 11.5635 | 14.09430 | – |
| 2026 Apr 22 17:57 | 2026 Apr 16 18:00:36 | 99.5346 | 0.00502 | 14.7144 | 39.9631 | 11.5635 | 14.09430 | – |
| 2026 Apr 21 17:57 | 2026 Apr 16 18:00:36 | 99.5346 | 0.00502 | 14.7144 | 39.9631 | 11.5635 | 14.09430 | – |
| 2026 Apr 20 17:57 | 2026 Apr 16 18:00:36 | 99.5346 | 0.00502 | 14.7144 | 39.9631 | 11.5635 | 14.09430 | – |
| 2026 Apr 19 17:58 | 2026 Apr 16 18:00:36 | 99.5346 | 0.00502 | 14.7144 | 39.9631 | 11.5635 | 14.09430 | – |
| 2026 Apr 18 17:56 | 2026 Apr 13 06:31:31 | 99.5342 | 0.00504 | 14.4691 | 49.5244 | 11.5635 | 14.09430 | – |
| 2026 Apr 16 17:57 | 2026 Apr 13 06:31:31 | 99.5342 | 0.00504 | 14.4691 | 49.5244 | 11.5635 | 14.09430 | – |
| 2026 Apr 14 17:57 | 2026 Apr 13 06:31:31 | 99.5342 | 0.00504 | 14.4691 | 49.5244 | 11.5635 | 14.09430 | – |
| 2026 Apr 13 17:57 | 2026 Apr 13 06:31:31 | 99.5342 | 0.00504 | 14.4691 | 49.5244 | 11.5635 | 14.09430 | – |
| 2026 Apr 12 17:57 | 2026 Apr 07 00:35:35 | 99.5334 | 0.00508 | 14.0284 | 66.6419 | 11.5635 | 14.09430 | – |
| 2026 Apr 11 17:57 | 2026 Apr 07 00:35:35 | 99.5334 | 0.00508 | 14.0284 | 66.6419 | 11.5635 | 14.09430 | – |
| 2026 Apr 10 17:58 | 2026 Apr 07 00:35:35 | 99.5334 | 0.00508 | 14.0284 | 66.6419 | 11.5635 | 14.09430 | – |
| 2026 Apr 09 18:01 | 2026 Apr 07 00:35:35 | 99.5334 | 0.00508 | 14.0284 | 66.6419 | 11.5635 | 14.09430 | – |
| 2026 Apr 08 17:57 | 2026 Apr 07 00:35:35 | 99.5334 | 0.00508 | 14.0284 | 66.6419 | 11.5635 | 14.09430 | – |